sensor_id;sensor_type;location;lat;lon;timestamp;temperature;humidity
8105;DHT22;4095;48.942;9.104;2024-01-16T00:00:33;4.30;98.70
8105;DHT22;4095;48.942;9.104;2024-01-16T00:02:59;4.20;98.50
8105;DHT22;4095;48.942;9.104;2024-01-16T00:05:24;4.20;98.50
8105;DHT22;4095;48.942;9.104;2024-01-16T00:07:50;4.10;98.50
8105;DHT22;4095;48.942;9.104;2024-01-16T00:10:16;4.00;98.60
8105;DHT22;4095;48.942;9.104;2024-01-16T00:12:41;4.00;98.60
8105;DHT22;4095;48.942;9.104;2024-01-16T00:15:08;4.00;98.50
8105;DHT22;4095;48.942;9.104;2024-01-16T00:17:34;3.90;98.60
8105;DHT22;4095;48.942;9.104;2024-01-16T00:20:00;3.90;98.60
8105;DHT22;4095;48.942;9.104;2024-01-16T00:22:29;3.90;98.70
8105;DHT22;4095;48.942;9.104;2024-01-16T00:24:55;3.90;98.60
8105;DHT22;4095;48.942;9.104;2024-01-16T00:27:20;3.90;98.70
8105;DHT22;4095;48.942;9.104;2024-01-16T00:29:46;4.00;98.70
8105;DHT22;4095;48.942;9.104;2024-01-16T00:32:12;4.00;98.60
8105;DHT22;4095;48.942;9.104;2024-01-16T00:34:42;4.00;98.50
8105;DHT22;4095;48.942;9.104;2024-01-16T00:37:07;4.00;98.60
8105;DHT22;4095;48.942;9.104;2024-01-16T00:39:33;4.10;98.50
8105;DHT22;4095;48.942;9.104;2024-01-16T00:41:58;4.10;98.30
8105;DHT22;4095;48.942;9.104;2024-01-16T00:44:24;4.10;98.20
8105;DHT22;4095;48.942;9.104;2024-01-16T00:46:50;4.10;98.30
8105;DHT22;4095;48.942;9.104;2024-01-16T00:49:15;4.00;98.30
8105;DHT22;4095;48.942;9.104;2024-01-16T00:51:41;4.00;98.30
8105;DHT22;4095;48.942;9.104;2024-01-16T00:54:06;4.00;98.30
8105;DHT22;4095;48.942;9.104;2024-01-16T00:56:35;3.90;98.30
8105;DHT22;4095;48.942;9.104;2024-01-16T00:59:01;3.90;98.40
8105;DHT22;4095;48.942;9.104;2024-01-16T01:01:27;3.90;98.40
8105;DHT22;4095;48.942;9.104;2024-01-16T01:03:52;3.90;98.30
8105;DHT22;4095;48.942;9.104;2024-01-16T01:06:18;3.90;98.40
8105;DHT22;4095;48.942;9.104;2024-01-16T01:08:44;3.80;98.50
8105;DHT22;4095;48.942;9.104;2024-01-16T01:11:09;3.80;98.60
8105;DHT22;4095;48.942;9.104;2024-01-16T01:13:35;3.70;98.80
8105;DHT22;4095;48.942;9.104;2024-01-16T01:16:00;3.80;98.80
8105;DHT22;4095;48.942;9.104;2024-01-16T01:18:26;3.80;98.90
8105;DHT22;4095;48.942;9.104;2024-01-16T01:20:52;3.80;98.90
8105;DHT22;4095;48.942;9.104;2024-01-16T01:23:17;3.80;99.00
8105;DHT22;4095;48.942;9.104;2024-01-16T01:25:43;3.90;99.00
8105;DHT22;4095;48.942;9.104;2024-01-16T01:28:09;3.90;98.80
8105;DHT22;4095;48.942;9.104;2024-01-16T01:30:36;3.80;98.70
8105;DHT22;4095;48.942;9.104;2024-01-16T01:33:02;3.80;98.80
8105;DHT22;4095;48.942;9.104;2024-01-16T01:35:27;3.70;98.80
8105;DHT22;4095;48.942;9.104;2024-01-16T01:37:53;3.60;98.80
8105;DHT22;4095;48.942;9.104;2024-01-16T01:40:18;3.60;99.00
8105;DHT22;4095;48.942;9.104;2024-01-16T01:42:44;3.60;99.20
8105;DHT22;4095;48.942;9.104;2024-01-16T01:45:10;3.70;99.20
8105;DHT22;4095;48.942;9.104;2024-01-16T01:47:39;3.70;99.20
8105;DHT22;4095;48.942;9.104;2024-01-16T01:50:17;3.70;99.20
8105;DHT22;4095;48.942;9.104;2024-01-16T01:52:44;3.80;99.10
8105;DHT22;4095;48.942;9.104;2024-01-16T01:55:11;3.80;99.10
8105;DHT22;4095;48.942;9.104;2024-01-16T01:57:39;3.80;99.10
8105;DHT22;4095;48.942;9.104;2024-01-16T02:00:05;3.80;99.00
8105;DHT22;4095;48.942;9.104;2024-01-16T02:02:32;3.80;99.10
8105;DHT22;4095;48.942;9.104;2024-01-16T02:04:58;3.80;98.90
8105;DHT22;4095;48.942;9.104;2024-01-16T02:07:23;3.80;98.90
8105;DHT22;4095;48.942;9.104;2024-01-16T02:09:50;3.80;99.00
8105;DHT22;4095;48.942;9.104;2024-01-16T02:12:16;3.70;98.90
8105;DHT22;4095;48.942;9.104;2024-01-16T02:14:41;3.70;99.00
8105;DHT22;4095;48.942;9.104;2024-01-16T02:17:07;3.70;99.00
8105;DHT22;4095;48.942;9.104;2024-01-16T02:19:32;3.70;99.00
8105;DHT22;4095;48.942;9.104;2024-01-16T02:22:00;3.70;99.00
8105;DHT22;4095;48.942;9.104;2024-01-16T02:24:26;3.70;99.10
8105;DHT22;4095;48.942;9.104;2024-01-16T02:26:52;3.70;99.10
8105;DHT22;4095;48.942;9.104;2024-01-16T02:29:18;3.70;99.00
8105;DHT22;4095;48.942;9.104;2024-01-16T02:31:44;3.80;99.00
8105;DHT22;4095;48.942;9.104;2024-01-16T02:34:09;3.80;99.00
8105;DHT22;4095;48.942;9.104;2024-01-16T02:36:35;3.80;99.00
8105;DHT22;4095;48.942;9.104;2024-01-16T02:39:00;3.80;98.90
8105;DHT22;4095;48.942;9.104;2024-01-16T02:41:26;3.90;98.90
8105;DHT22;4095;48.942;9.104;2024-01-16T02:43:51;3.90;98.80
8105;DHT22;4095;48.942;9.104;2024-01-16T02:46:17;3.80;99.00
8105;DHT22;4095;48.942;9.104;2024-01-16T02:48:43;3.90;98.80
8105;DHT22;4095;48.942;9.104;2024-01-16T02:51:08;3.80;98.70
8105;DHT22;4095;48.942;9.104;2024-01-16T02:53:34;3.80;98.80
8105;DHT22;4095;48.942;9.104;2024-01-16T02:56:00;3.80;98.90
8105;DHT22;4095;48.942;9.104;2024-01-16T02:58:26;3.80;98.80
8105;DHT22;4095;48.942;9.104;2024-01-16T03:00:52;3.80;98.70
8105;DHT22;4095;48.942;9.104;2024-01-16T03:03:18;3.80;98.70
8105;DHT22;4095;48.942;9.104;2024-01-16T03:05:44;3.80;98.60
8105;DHT22;4095;48.942;9.104;2024-01-16T03:08:10;3.80;98.50
8105;DHT22;4095;48.942;9.104;2024-01-16T03:10:35;3.70;98.50
8105;DHT22;4095;48.942;9.104;2024-01-16T03:13:01;3.70;98.50
8105;DHT22;4095;48.942;9.104;2024-01-16T03:15:27;3.70;98.50
8105;DHT22;4095;48.942;9.104;2024-01-16T03:17:52;3.70;98.50
8105;DHT22;4095;48.942;9.104;2024-01-16T03:20:18;3.70;98.50
8105;DHT22;4095;48.942;9.104;2024-01-16T03:22:44;3.70;98.60
8105;DHT22;4095;48.942;9.104;2024-01-16T03:25:10;3.70;98.60
8105;DHT22;4095;48.942;9.104;2024-01-16T03:27:38;3.60;98.60
8105;DHT22;4095;48.942;9.104;2024-01-16T03:30:04;3.60;98.70
8105;DHT22;4095;48.942;9.104;2024-01-16T03:32:31;3.60;98.70
8105;DHT22;4095;48.942;9.104;2024-01-16T03:34:57;3.60;98.70
8105;DHT22;4095;48.942;9.104;2024-01-16T03:37:22;3.50;98.70
8105;DHT22;4095;48.942;9.104;2024-01-16T03:39:48;3.50;98.70
8105;DHT22;4095;48.942;9.104;2024-01-16T03:42:15;3.50;98.70
8105;DHT22;4095;48.942;9.104;2024-01-16T03:44:41;3.50;98.80
8105;DHT22;4095;48.942;9.104;2024-01-16T03:47:07;3.50;98.70
8105;DHT22;4095;48.942;9.104;2024-01-16T03:49:32;3.50;98.70
8105;DHT22;4095;48.942;9.104;2024-01-16T03:51:58;3.50;98.70
8105;DHT22;4095;48.942;9.104;2024-01-16T03:54:24;3.50;98.60
8105;DHT22;4095;48.942;9.104;2024-01-16T03:56:51;3.50;98.50
8105;DHT22;4095;48.942;9.104;2024-01-16T03:59:16;3.50;98.50
8105;DHT22;4095;48.942;9.104;2024-01-16T04:01:42;3.40;98.40
8105;DHT22;4095;48.942;9.104;2024-01-16T04:04:09;3.40;98.30
8105;DHT22;4095;48.942;9.104;2024-01-16T04:06:35;3.30;98.20
8105;DHT22;4095;48.942;9.104;2024-01-16T04:09:01;3.20;98.30
8105;DHT22;4095;48.942;9.104;2024-01-16T04:11:28;3.20;98.40
8105;DHT22;4095;48.942;9.104;2024-01-16T04:13:54;3.20;98.40
8105;DHT22;4095;48.942;9.104;2024-01-16T04:16:19;3.10;98.30
8105;DHT22;4095;48.942;9.104;2024-01-16T04:18:45;3.00;98.40
8105;DHT22;4095;48.942;9.104;2024-01-16T04:21:10;3.00;98.50
8105;DHT22;4095;48.942;9.104;2024-01-16T04:23:36;3.00;98.50
8105;DHT22;4095;48.942;9.104;2024-01-16T04:26:02;3.00;98.40
8105;DHT22;4095;48.942;9.104;2024-01-16T04:28:28;2.90;98.20
8105;DHT22;4095;48.942;9.104;2024-01-16T04:30:53;2.80;98.10
8105;DHT22;4095;48.942;9.104;2024-01-16T04:33:19;2.80;98.20
8105;DHT22;4095;48.942;9.104;2024-01-16T04:35:45;2.70;98.30
8105;DHT22;4095;48.942;9.104;2024-01-16T04:38:10;2.70;98.50
8105;DHT22;4095;48.942;9.104;2024-01-16T04:40:36;2.70;98.60
8105;DHT22;4095;48.942;9.104;2024-01-16T04:43:02;2.70;98.50
8105;DHT22;4095;48.942;9.104;2024-01-16T04:45:28;2.70;98.40
8105;DHT22;4095;48.942;9.104;2024-01-16T04:47:53;2.80;98.50
8105;DHT22;4095;48.942;9.104;2024-01-16T04:50:19;2.80;98.40
8105;DHT22;4095;48.942;9.104;2024-01-16T04:52:45;2.80;98.30
8105;DHT22;4095;48.942;9.104;2024-01-16T04:55:10;2.80;98.30
8105;DHT22;4095;48.942;9.104;2024-01-16T04:57:36;2.80;98.40
8105;DHT22;4095;48.942;9.104;2024-01-16T05:00:02;2.80;98.40
8105;DHT22;4095;48.942;9.104;2024-01-16T05:02:32;2.80;98.30
8105;DHT22;4095;48.942;9.104;2024-01-16T05:04:58;2.70;98.10
8105;DHT22;4095;48.942;9.104;2024-01-16T05:07:24;2.50;98.20
8105;DHT22;4095;48.942;9.104;2024-01-16T05:09:49;2.40;98.20
8105;DHT22;4095;48.942;9.104;2024-01-16T05:12:15;2.40;98.40
8105;DHT22;4095;48.942;9.104;2024-01-16T05:14:40;2.30;98.50
8105;DHT22;4095;48.942;9.104;2024-01-16T05:17:06;2.30;98.70
8105;DHT22;4095;48.942;9.104;2024-01-16T05:19:31;2.20;98.80
8105;DHT22;4095;48.942;9.104;2024-01-16T05:21:57;2.20;99.10
8105;DHT22;4095;48.942;9.104;2024-01-16T05:24:23;2.10;99.20
8105;DHT22;4095;48.942;9.104;2024-01-16T05:26:48;2.10;99.40
8105;DHT22;4095;48.942;9.104;2024-01-16T05:29:14;2.10;99.40
8105;DHT22;4095;48.942;9.104;2024-01-16T05:31:42;2.10;99.50
8105;DHT22;4095;48.942;9.104;2024-01-16T05:34:09;1.90;99.10
8105;DHT22;4095;48.942;9.104;2024-01-16T05:36:34;1.90;99.20
8105;DHT22;4095;48.942;9.104;2024-01-16T05:39:00;1.80;99.00
8105;DHT22;4095;48.942;9.104;2024-01-16T05:41:26;1.70;98.90
8105;DHT22;4095;48.942;9.104;2024-01-16T05:43:52;1.60;99.10
8105;DHT22;4095;48.942;9.104;2024-01-16T05:46:18;1.60;99.20
8105;DHT22;4095;48.942;9.104;2024-01-16T05:48:43;1.70;99.30
8105;DHT22;4095;48.942;9.104;2024-01-16T05:51:09;1.60;99.40
8105;DHT22;4095;48.942;9.104;2024-01-16T05:53:34;1.60;99.50
8105;DHT22;4095;48.942;9.104;2024-01-16T05:56:00;1.70;99.60
8105;DHT22;4095;48.942;9.104;2024-01-16T05:58:25;1.60;99.80
8105;DHT22;4095;48.942;9.104;2024-01-16T06:00:51;1.70;99.90
8105;DHT22;4095;48.942;9.104;2024-01-16T06:03:16;1.70;99.90
8105;DHT22;4095;48.942;9.104;2024-01-16T06:05:42;1.60;99.90
8105;DHT22;4095;48.942;9.104;2024-01-16T06:08:07;1.60;99.90
8105;DHT22;4095;48.942;9.104;2024-01-16T06:10:33;1.60;99.90
8105;DHT22;4095;48.942;9.104;2024-01-16T06:12:58;1.60;99.90
8105;DHT22;4095;48.942;9.104;2024-01-16T06:15:24;1.50;99.90
8105;DHT22;4095;48.942;9.104;2024-01-16T06:17:49;1.50;99.90
8105;DHT22;4095;48.942;9.104;2024-01-16T06:20:15;1.50;99.90
8105;DHT22;4095;48.942;9.104;2024-01-16T06:22:41;1.50;99.90
8105;DHT22;4095;48.942;9.104;2024-01-16T06:25:06;1.60;99.90
8105;DHT22;4095;48.942;9.104;2024-01-16T06:27:32;1.60;99.90
8105;DHT22;4095;48.942;9.104;2024-01-16T06:29:58;1.60;99.90
8105;DHT22;4095;48.942;9.104;2024-01-16T06:32:23;1.60;99.90
8105;DHT22;4095;48.942;9.104;2024-01-16T06:34:49;1.70;99.90
8105;DHT22;4095;48.942;9.104;2024-01-16T06:37:15;1.70;99.90
8105;DHT22;4095;48.942;9.104;2024-01-16T06:39:40;1.70;99.90
8105;DHT22;4095;48.942;9.104;2024-01-16T06:42:06;1.80;99.90
8105;DHT22;4095;48.942;9.104;2024-01-16T06:44:31;1.80;99.90
8105;DHT22;4095;48.942;9.104;2024-01-16T06:46:57;1.70;99.90
8105;DHT22;4095;48.942;9.104;2024-01-16T06:49:22;1.70;99.90
8105;DHT22;4095;48.942;9.104;2024-01-16T06:51:48;1.80;99.90
8105;DHT22;4095;48.942;9.104;2024-01-16T06:54:13;1.80;99.90
8105;DHT22;4095;48.942;9.104;2024-01-16T06:56:39;1.90;99.90
8105;DHT22;4095;48.942;9.104;2024-01-16T06:59:04;1.90;99.90
8105;DHT22;4095;48.942;9.104;2024-01-16T07:01:30;2.10;99.90
8105;DHT22;4095;48.942;9.104;2024-01-16T07:03:56;2.20;99.90
8105;DHT22;4095;48.942;9.104;2024-01-16T07:06:21;2.40;99.90
8105;DHT22;4095;48.942;9.104;2024-01-16T07:08:47;2.50;99.90
8105;DHT22;4095;48.942;9.104;2024-01-16T07:11:13;2.60;99.80
8105;DHT22;4095;48.942;9.104;2024-01-16T07:13:40;2.70;99.70
8105;DHT22;4095;48.942;9.104;2024-01-16T07:16:09;2.80;99.60
8105;DHT22;4095;48.942;9.104;2024-01-16T07:18:35;2.80;99.40
8105;DHT22;4095;48.942;9.104;2024-01-16T07:21:00;2.80;99.30
8105;DHT22;4095;48.942;9.104;2024-01-16T07:23:26;2.80;99.30
8105;DHT22;4095;48.942;9.104;2024-01-16T07:25:52;2.90;99.30
8105;DHT22;4095;48.942;9.104;2024-01-16T07:28:17;2.90;99.30
8105;DHT22;4095;48.942;9.104;2024-01-16T07:30:44;2.90;99.20
8105;DHT22;4095;48.942;9.104;2024-01-16T07:33:09;3.00;99.20
8105;DHT22;4095;48.942;9.104;2024-01-16T07:35:35;3.00;99.00
8105;DHT22;4095;48.942;9.104;2024-01-16T07:38:01;3.10;99.10
8105;DHT22;4095;48.942;9.104;2024-01-16T07:40:26;3.10;99.00
8105;DHT22;4095;48.942;9.104;2024-01-16T07:42:52;3.10;98.90
8105;DHT22;4095;48.942;9.104;2024-01-16T07:45:17;3.10;98.90
8105;DHT22;4095;48.942;9.104;2024-01-16T07:47:43;3.10;98.90
8105;DHT22;4095;48.942;9.104;2024-01-16T07:50:08;3.10;98.70
8105;DHT22;4095;48.942;9.104;2024-01-16T07:52:34;3.20;98.70
8105;DHT22;4095;48.942;9.104;2024-01-16T07:54:59;3.20;98.70
8105;DHT22;4095;48.942;9.104;2024-01-16T07:57:25;3.20;98.70
8105;DHT22;4095;48.942;9.104;2024-01-16T07:59:50;3.30;98.80
8105;DHT22;4095;48.942;9.104;2024-01-16T08:02:16;3.30;98.80
8105;DHT22;4095;48.942;9.104;2024-01-16T08:04:42;3.30;99.10
8105;DHT22;4095;48.942;9.104;2024-01-16T08:07:08;3.30;98.80
8105;DHT22;4095;48.942;9.104;2024-01-16T08:09:33;3.40;98.90
8105;DHT22;4095;48.942;9.104;2024-01-16T08:12:00;3.40;98.80
8105;DHT22;4095;48.942;9.104;2024-01-16T08:14:27;3.40;98.80
8105;DHT22;4095;48.942;9.104;2024-01-16T08:16:54;3.40;98.80
8105;DHT22;4095;48.942;9.104;2024-01-16T08:19:19;3.50;99.00
8105;DHT22;4095;48.942;9.104;2024-01-16T08:21:45;3.60;98.90
8105;DHT22;4095;48.942;9.104;2024-01-16T08:24:10;3.60;99.00
8105;DHT22;4095;48.942;9.104;2024-01-16T08:26:36;3.70;99.00
8105;DHT22;4095;48.942;9.104;2024-01-16T08:29:02;3.70;98.70
8105;DHT22;4095;48.942;9.104;2024-01-16T08:31:27;3.70;98.60
8105;DHT22;4095;48.942;9.104;2024-01-16T08:33:53;3.80;98.50
8105;DHT22;4095;48.942;9.104;2024-01-16T08:36:21;3.80;98.30
8105;DHT22;4095;48.942;9.104;2024-01-16T08:38:47;3.90;98.30
8105;DHT22;4095;48.942;9.104;2024-01-16T08:41:12;4.00;98.30
8105;DHT22;4095;48.942;9.104;2024-01-16T08:43:38;4.00;98.10
8105;DHT22;4095;48.942;9.104;2024-01-16T08:46:03;4.10;98.10
8105;DHT22;4095;48.942;9.104;2024-01-16T08:48:29;4.10;98.00
8105;DHT22;4095;48.942;9.104;2024-01-16T08:50:55;4.10;98.00
8105;DHT22;4095;48.942;9.104;2024-01-16T08:53:21;4.10;97.80
8105;DHT22;4095;48.942;9.104;2024-01-16T08:55:48;4.10;97.80
8105;DHT22;4095;48.942;9.104;2024-01-16T08:58:14;4.10;97.80
8105;DHT22;4095;48.942;9.104;2024-01-16T09:00:40;4.10;97.70
8105;DHT22;4095;48.942;9.104;2024-01-16T09:03:06;4.10;97.30
8105;DHT22;4095;48.942;9.104;2024-01-16T09:05:31;4.10;97.10
8105;DHT22;4095;48.942;9.104;2024-01-16T09:07:57;4.10;97.00
8105;DHT22;4095;48.942;9.104;2024-01-16T09:10:22;4.10;96.90
8105;DHT22;4095;48.942;9.104;2024-01-16T09:12:48;4.20;96.70
8105;DHT22;4095;48.942;9.104;2024-01-16T09:15:14;4.30;96.50
8105;DHT22;4095;48.942;9.104;2024-01-16T09:17:39;4.30;96.30
8105;DHT22;4095;48.942;9.104;2024-01-16T09:20:06;4.30;96.20
8105;DHT22;4095;48.942;9.104;2024-01-16T09:22:32;4.30;96.30
8105;DHT22;4095;48.942;9.104;2024-01-16T09:24:58;4.30;96.50
8105;DHT22;4095;48.942;9.104;2024-01-16T09:27:23;4.40;96.20
8105;DHT22;4095;48.942;9.104;2024-01-16T09:29:49;4.50;96.00
8105;DHT22;4095;48.942;9.104;2024-01-16T09:32:14;4.50;96.10
8105;DHT22;4095;48.942;9.104;2024-01-16T09:34:40;4.50;96.10
8105;DHT22;4095;48.942;9.104;2024-01-16T09:37:05;4.60;96.10
8105;DHT22;4095;48.942;9.104;2024-01-16T09:39:31;4.60;95.90
8105;DHT22;4095;48.942;9.104;2024-01-16T09:41:59;4.60;95.90
8105;DHT22;4095;48.942;9.104;2024-01-16T09:44:28;4.60;95.80
8105;DHT22;4095;48.942;9.104;2024-01-16T09:46:55;4.70;95.80
8105;DHT22;4095;48.942;9.104;2024-01-16T09:49:21;4.70;95.70
8105;DHT22;4095;48.942;9.104;2024-01-16T09:51:48;4.80;95.70
8105;DHT22;4095;48.942;9.104;2024-01-16T09:54:14;4.90;96.00
8105;DHT22;4095;48.942;9.104;2024-01-16T09:56:42;5.00;95.70
8105;DHT22;4095;48.942;9.104;2024-01-16T09:59:09;5.00;95.60
8105;DHT22;4095;48.942;9.104;2024-01-16T10:01:35;5.10;95.70
8105;DHT22;4095;48.942;9.104;2024-01-16T10:04:02;5.30;95.80
8105;DHT22;4095;48.942;9.104;2024-01-16T10:06:27;5.50;95.90
8105;DHT22;4095;48.942;9.104;2024-01-16T10:08:55;5.50;95.70
8105;DHT22;4095;48.942;9.104;2024-01-16T10:11:20;5.60;95.60
8105;DHT22;4095;48.942;9.104;2024-01-16T10:13:46;5.70;95.50
8105;DHT22;4095;48.942;9.104;2024-01-16T10:16:11;5.70;95.60
8105;DHT22;4095;48.942;9.104;2024-01-16T10:18:37;5.80;95.40
8105;DHT22;4095;48.942;9.104;2024-01-16T10:21:03;5.80;95.30
8105;DHT22;4095;48.942;9.104;2024-01-16T10:23:30;5.80;94.90
8105;DHT22;4095;48.942;9.104;2024-01-16T10:26:10;5.80;94.40
8105;DHT22;4095;48.942;9.104;2024-01-16T10:28:39;5.80;94.30
8105;DHT22;4095;48.942;9.104;2024-01-16T10:31:07;5.90;94.60
8105;DHT22;4095;48.942;9.104;2024-01-16T10:33:33;6.20;94.60
8105;DHT22;4095;48.942;9.104;2024-01-16T10:38:41;7.10;94.40
8105;DHT22;4095;48.942;9.104;2024-01-16T10:43:36;8.30;92.50
8105;DHT22;4095;48.942;9.104;2024-01-16T10:46:12;8.40;92.00
8105;DHT22;4095;48.942;9.104;2024-01-16T10:48:40;8.40;91.70
8105;DHT22;4095;48.942;9.104;2024-01-16T10:51:07;8.30;91.70
8105;DHT22;4095;48.942;9.104;2024-01-16T10:53:34;8.20;91.80
8105;DHT22;4095;48.942;9.104;2024-01-16T10:56:01;8.10;91.90
8105;DHT22;4095;48.942;9.104;2024-01-16T10:58:30;8.20;92.30
8105;DHT22;4095;48.942;9.104;2024-01-16T11:00:57;8.60;92.00
8105;DHT22;4095;48.942;9.104;2024-01-16T11:03:35;9.40;92.40
8105;DHT22;4095;48.942;9.104;2024-01-16T11:06:05;10.60;91.10
8105;DHT22;4095;48.942;9.104;2024-01-16T11:08:35;11.20;90.00
8105;DHT22;4095;48.942;9.104;2024-01-16T11:11:01;11.50;88.90
8105;DHT22;4095;48.942;9.104;2024-01-16T11:13:31;12.20;88.50
8105;DHT22;4095;48.942;9.104;2024-01-16T11:15:58;13.20;85.00
8105;DHT22;4095;48.942;9.104;2024-01-16T11:18:25;13.60;81.90
8105;DHT22;4095;48.942;9.104;2024-01-16T11:20:51;13.50;80.20
8105;DHT22;4095;48.942;9.104;2024-01-16T11:23:17;12.90;78.50
8105;DHT22;4095;48.942;9.104;2024-01-16T11:25:42;12.80;77.70
8105;DHT22;4095;48.942;9.104;2024-01-16T11:28:10;13.30;80.20
8105;DHT22;4095;48.942;9.104;2024-01-16T11:30:36;14.50;79.50
8105;DHT22;4095;48.942;9.104;2024-01-16T11:33:02;15.80;76.90
8105;DHT22;4095;48.942;9.104;2024-01-16T11:35:37;16.70;74.10
8105;DHT22;4095;48.942;9.104;2024-01-16T11:38:16;17.30;71.50
8105;DHT22;4095;48.942;9.104;2024-01-16T11:40:42;17.20;68.20
8105;DHT22;4095;48.942;9.104;2024-01-16T11:46:08;16.50;66.80
8105;DHT22;4095;48.942;9.104;2024-01-16T11:48:34;15.80;66.60
8105;DHT22;4095;48.942;9.104;2024-01-16T11:51:00;15.30;68.10
8105;DHT22;4095;48.942;9.104;2024-01-16T11:53:46;15.40;69.50
8105;DHT22;4095;48.942;9.104;2024-01-16T11:56:14;15.50;68.50
8105;DHT22;4095;48.942;9.104;2024-01-16T11:58:58;16.10;68.60
8105;DHT22;4095;48.942;9.104;2024-01-16T12:01:26;16.80;67.30
8105;DHT22;4095;48.942;9.104;2024-01-16T12:04:05;17.10;66.30
8105;DHT22;4095;48.942;9.104;2024-01-16T12:06:31;17.00;66.00
8105;DHT22;4095;48.942;9.104;2024-01-16T12:09:16;17.10;65.90
8105;DHT22;4095;48.942;9.104;2024-01-16T12:11:43;17.50;65.50
8105;DHT22;4095;48.942;9.104;2024-01-16T12:14:11;17.80;66.00
8105;DHT22;4095;48.942;9.104;2024-01-16T12:16:37;18.10;65.40
8105;DHT22;4095;48.942;9.104;2024-01-16T12:19:07;18.30;64.00
8105;DHT22;4095;48.942;9.104;2024-01-16T12:21:41;18.50;63.60
8105;DHT22;4095;48.942;9.104;2024-01-16T12:24:07;18.50;62.40
8105;DHT22;4095;48.942;9.104;2024-01-16T12:26:33;18.80;62.80
8105;DHT22;4095;48.942;9.104;2024-01-16T12:28:59;19.40;61.00
8105;DHT22;4095;48.942;9.104;2024-01-16T12:31:25;19.70;60.30
8105;DHT22;4095;48.942;9.104;2024-01-16T12:33:51;20.00;58.50
8105;DHT22;4095;48.942;9.104;2024-01-16T12:36:17;20.30;58.00
8105;DHT22;4095;48.942;9.104;2024-01-16T12:38:43;20.40;57.20
8105;DHT22;4095;48.942;9.104;2024-01-16T12:41:10;20.40;57.00
8105;DHT22;4095;48.942;9.104;2024-01-16T12:43:36;20.30;55.10
8105;DHT22;4095;48.942;9.104;2024-01-16T12:46:05;20.30;55.50
8105;DHT22;4095;48.942;9.104;2024-01-16T12:48:31;20.00;56.60
8105;DHT22;4095;48.942;9.104;2024-01-16T12:51:03;19.60;56.70
8105;DHT22;4095;48.942;9.104;2024-01-16T12:53:29;19.20;57.30
8105;DHT22;4095;48.942;9.104;2024-01-16T12:56:00;18.70;56.80
8105;DHT22;4095;48.942;9.104;2024-01-16T12:58:33;18.00;56.60
8105;DHT22;4095;48.942;9.104;2024-01-16T13:01:26;17.30;56.40
8105;DHT22;4095;48.942;9.104;2024-01-16T13:03:53;16.50;56.50
8105;DHT22;4095;48.942;9.104;2024-01-16T13:06:20;16.00;57.70
8105;DHT22;4095;48.942;9.104;2024-01-16T13:08:49;15.60;58.20
8105;DHT22;4095;48.942;9.104;2024-01-16T13:11:16;15.10;59.60
8105;DHT22;4095;48.942;9.104;2024-01-16T13:13:45;14.80;60.30
8105;DHT22;4095;48.942;9.104;2024-01-16T13:16:12;14.30;59.60
8105;DHT22;4095;48.942;9.104;2024-01-16T13:18:38;14.00;61.20
8105;DHT22;4095;48.942;9.104;2024-01-16T13:21:04;13.60;62.50
8105;DHT22;4095;48.942;9.104;2024-01-16T13:23:29;13.20;63.20
8105;DHT22;4095;48.942;9.104;2024-01-16T13:25:55;13.00;63.30
8105;DHT22;4095;48.942;9.104;2024-01-16T13:28:22;12.90;65.00
8105;DHT22;4095;48.942;9.104;2024-01-16T13:30:50;12.80;65.20
8105;DHT22;4095;48.942;9.104;2024-01-16T13:33:16;12.80;64.90
8105;DHT22;4095;48.942;9.104;2024-01-16T13:35:43;12.70;65.60
8105;DHT22;4095;48.942;9.104;2024-01-16T13:38:09;12.50;65.80
8105;DHT22;4095;48.942;9.104;2024-01-16T13:40:36;12.30;65.30
8105;DHT22;4095;48.942;9.104;2024-01-16T13:43:05;12.20;64.40
8105;DHT22;4095;48.942;9.104;2024-01-16T13:45:32;11.90;63.30
8105;DHT22;4095;48.942;9.104;2024-01-16T13:47:58;11.70;63.20
8105;DHT22;4095;48.942;9.104;2024-01-16T13:50:24;11.70;63.10
8105;DHT22;4095;48.942;9.104;2024-01-16T13:52:50;11.70;62.90
8105;DHT22;4095;48.942;9.104;2024-01-16T13:55:17;11.60;62.50
8105;DHT22;4095;48.942;9.104;2024-01-16T13:57:43;11.50;61.60
8105;DHT22;4095;48.942;9.104;2024-01-16T14:00:11;11.40;62.50
8105;DHT22;4095;48.942;9.104;2024-01-16T14:02:39;11.30;62.80
8105;DHT22;4095;48.942;9.104;2024-01-16T14:05:09;11.30;61.70
8105;DHT22;4095;48.942;9.104;2024-01-16T14:07:37;11.40;62.00
8105;DHT22;4095;48.942;9.104;2024-01-16T14:10:07;11.50;62.10
8105;DHT22;4095;48.942;9.104;2024-01-16T14:12:35;11.50;61.90
8105;DHT22;4095;48.942;9.104;2024-01-16T14:15:01;11.50;62.40
8105;DHT22;4095;48.942;9.104;2024-01-16T14:17:30;11.40;62.50
8105;DHT22;4095;48.942;9.104;2024-01-16T14:19:55;11.30;63.30
8105;DHT22;4095;48.942;9.104;2024-01-16T14:22:21;11.20;63.20
8105;DHT22;4095;48.942;9.104;2024-01-16T14:24:47;11.00;63.50
8105;DHT22;4095;48.942;9.104;2024-01-16T14:27:16;10.90;64.50
8105;DHT22;4095;48.942;9.104;2024-01-16T14:29:41;10.70;63.20
8105;DHT22;4095;48.942;9.104;2024-01-16T14:32:07;10.40;64.40
8105;DHT22;4095;48.942;9.104;2024-01-16T14:34:32;10.20;64.90
8105;DHT22;4095;48.942;9.104;2024-01-16T14:36:58;10.20;65.20
8105;DHT22;4095;48.942;9.104;2024-01-16T14:39:23;10.00;65.40
8105;DHT22;4095;48.942;9.104;2024-01-16T14:41:56;9.90;66.50
8105;DHT22;4095;48.942;9.104;2024-01-16T14:44:23;9.70;66.20
8105;DHT22;4095;48.942;9.104;2024-01-16T14:46:49;9.70;66.70
8105;DHT22;4095;48.942;9.104;2024-01-16T14:49:14;9.60;67.10
8105;DHT22;4095;48.942;9.104;2024-01-16T14:51:40;9.50;66.30
8105;DHT22;4095;48.942;9.104;2024-01-16T14:54:06;9.30;66.90
8105;DHT22;4095;48.942;9.104;2024-01-16T14:56:31;9.10;65.40
8105;DHT22;4095;48.942;9.104;2024-01-16T14:58:57;9.10;66.50
8105;DHT22;4095;48.942;9.104;2024-01-16T15:01:23;8.90;68.50
8105;DHT22;4095;48.942;9.104;2024-01-16T15:03:49;8.70;69.80
8105;DHT22;4095;48.942;9.104;2024-01-16T15:06:14;8.50;69.80
8105;DHT22;4095;48.942;9.104;2024-01-16T15:08:40;8.40;70.70
8105;DHT22;4095;48.942;9.104;2024-01-16T15:11:06;8.20;71.10
8105;DHT22;4095;48.942;9.104;2024-01-16T15:13:32;8.10;70.00
8105;DHT22;4095;48.942;9.104;2024-01-16T15:15:58;7.90;70.10
8105;DHT22;4095;48.942;9.104;2024-01-16T15:18:24;7.80;72.00
8105;DHT22;4095;48.942;9.104;2024-01-16T15:20:50;7.60;73.10
8105;DHT22;4095;48.942;9.104;2024-01-16T15:23:15;7.50;73.20
8105;DHT22;4095;48.942;9.104;2024-01-16T15:25:41;7.30;72.80
8105;DHT22;4095;48.942;9.104;2024-01-16T15:28:07;7.20;72.70
8105;DHT22;4095;48.942;9.104;2024-01-16T15:30:33;7.10;73.20
8105;DHT22;4095;48.942;9.104;2024-01-16T15:33:01;7.00;74.20
8105;DHT22;4095;48.942;9.104;2024-01-16T15:35:28;6.90;75.20
8105;DHT22;4095;48.942;9.104;2024-01-16T15:37:54;6.80;75.30
8105;DHT22;4095;48.942;9.104;2024-01-16T15:40:20;6.60;75.70
8105;DHT22;4095;48.942;9.104;2024-01-16T15:42:45;6.40;76.40
8105;DHT22;4095;48.942;9.104;2024-01-16T15:45:11;6.30;77.40
8105;DHT22;4095;48.942;9.104;2024-01-16T15:47:36;6.20;77.80
8105;DHT22;4095;48.942;9.104;2024-01-16T15:50:03;6.10;78.10
8105;DHT22;4095;48.942;9.104;2024-01-16T15:52:30;5.90;78.90
8105;DHT22;4095;48.942;9.104;2024-01-16T15:54:55;5.70;79.70
8105;DHT22;4095;48.942;9.104;2024-01-16T15:57:21;5.60;80.70
8105;DHT22;4095;48.942;9.104;2024-01-16T15:59:46;5.40;81.20
8105;DHT22;4095;48.942;9.104;2024-01-16T16:02:12;5.30;81.80
8105;DHT22;4095;48.942;9.104;2024-01-16T16:04:38;5.20;82.70
8105;DHT22;4095;48.942;9.104;2024-01-16T16:07:04;5.20;83.40
8105;DHT22;4095;48.942;9.104;2024-01-16T16:09:30;5.10;83.40
8105;DHT22;4095;48.942;9.104;2024-01-16T16:11:55;5.00;84.60
8105;DHT22;4095;48.942;9.104;2024-01-16T16:14:22;4.90;85.20
8105;DHT22;4095;48.942;9.104;2024-01-16T16:16:48;4.90;86.10